Time;durP1;ratioP1;P1;durP2;ratioP2;P2;SDS_P1;SDS_P2;PMS_P1;PMS_P2;Temp;Humidity;BMP_temperature;BMP_pressure;BME280_temperature;BME280_humidity;BME280_pressure;Samples;Min_cycle;Max_cycle;Signal;HPM_P1;HPM_P2
2023/07/26 00:01:55;;;;;;;;;;;;;;;-140.72;100.00;52697.28;5084421;28;19920;-70
2023/07/26 00:04:20;;;;;;;;;;;;;;;-140.72;100.00;52658.72;5086945;28;20334;-70
2023/07/26 00:06:46;;;;;;;;;;;;;;;-140.72;100.00;52668.84;5085867;28;19973;-69
2023/07/26 00:09:12;;;;;;;;;;;;;;;-140.72;100.00;52679.00;5087494;28;19920;-70
2023/07/26 00:11:37;;;;;;;;;;;;;;;-140.72;100.00;52687.13;5084187;28;19935;-70
2023/07/26 00:14:03;;;;;;;;;;;;;;;-140.72;100.00;52648.56;5082180;28;19920;-70
2023/07/26 00:16:30;;;;;;;;;;;;;;;-140.72;100.00;52666.84;5085014;28;20008;-70
2023/07/26 00:18:56;;;;;;;;;;;;;;;-140.72;100.00;52691.19;5082412;28;20385;-70
2023/07/26 00:21:21;;;;;;;;;;;;;;;-140.72;100.00;52723.66;5090235;28;19974;-69
2023/07/26 00:23:46;;;;;;;;;;;;;;;-140.72;100.00;52689.16;5085829;28;19946;-70
2023/07/26 00:26:11;;;;;;;;;;;;;;;-140.72;100.00;52685.09;5082743;28;20051;-69
2023/07/26 00:28:36;;;;;;;;;;;;;;;-140.72;100.00;52674.94;5062829;28;19929;-70
2023/07/26 00:31:02;;;;;;;;;;;;;;;-140.72;100.00;52691.19;5069364;28;20294;-70
2023/07/26 00:33:27;;;;;;;;;;;;;;;-140.72;100.00;52687.13;5091215;28;19916;-70
2023/07/26 00:35:52;;;;;;;;;;;;;;;-140.72;100.00;52719.59;5085302;28;19928;-70
2023/07/26 00:38:17;;;;;;;;;;;;;;;-140.72;100.00;52670.88;5089264;28;19923;-70
2023/07/26 00:40:43;;;;;;;;;;;;;;;-140.72;100.00;52683.06;5090949;28;20382;-70
2023/07/26 00:43:08;;;;;;;;;;;;;;;-140.72;100.00;52709.44;5090839;28;19920;-70
2023/07/26 00:45:35;;;;;;;;;;;;;;;-140.72;100.00;52662.78;5091542;28;19917;-70
2023/07/26 00:48:00;;;;;;;;;;;;;;;-140.72;100.00;52697.28;5090166;28;19924;-70
2023/07/26 00:50:26;;;;;;;;;;;;;;;-140.72;100.00;52719.59;5083703;28;19926;-70
2023/07/26 00:52:51;;;;;;;;;;;;;;;-140.72;100.00;52681.03;5093613;28;20003;-69
2023/07/26 00:55:16;;;;;;;;;;;;;;;-140.72;100.00;52679.00;5092464;28;19924;-70
2023/07/26 00:57:45;;;;;;;;;;;;;;;-140.72;100.00;52656.69;5092599;28;20010;-70
2023/07/26 01:00:11;;;;;;;;;;;;;;;-140.72;100.00;52715.53;5078453;28;19924;-69
2023/07/26 01:02:36;;;;;;;;;;;;;;;-140.72;100.00;52683.06;5089958;28;20335;-70
2023/07/26 01:05:02;;;;;;;;;;;;;;;-140.72;100.00;52733.78;5089881;28;19946;-70
2023/07/26 01:07:48;;;;;;;;;;;;;;;-140.72;100.00;52664.81;5091270;28;19924;-69
2023/07/26 01:10:16;;;;;;;;;;;;;;;-140.72;100.00;52683.06;5090753;28;19924;-70
2023/07/26 01:12:52;;;;;;;;;;;;;;;-140.72;100.00;52715.53;5078917;28;19916;-70
2023/07/26 01:15:22;;;;;;;;;;;;;;;-140.72;100.00;52662.78;5084295;28;19969;-69
2023/07/26 01:17:48;;;;;;;;;;;;;;;-140.72;100.00;52711.47;5088868;28;19993;-70
2023/07/26 01:20:13;;;;;;;;;;;;;;;-140.72;100.00;52731.75;5093845;28;20373;-70
2023/07/26 01:22:38;;;;;;;;;;;;;;;-140.72;100.00;52656.69;5087037;28;19924;-70
2023/07/26 01:25:05;;;;;;;;;;;;;;;-140.72;100.00;52668.84;5089917;28;19916;-70
2023/07/26 01:27:30;;;;;;;;;;;;;;;-140.72;100.00;52711.47;5081893;28;19928;-70
2023/07/26 01:29:56;;;;;;;;;;;;;;;-140.72;100.00;52674.94;5087942;28;19990;-70
2023/07/26 01:32:24;;;;;;;;;;;;;;;-140.72;100.00;52670.88;5088378;28;20404;-70
2023/07/26 01:34:49;;;;;;;;;;;;;;;-140.72;100.00;52685.09;5085123;28;20401;-70
2023/07/26 01:37:16;;;;;;;;;;;;;;;-140.72;100.00;52674.94;5087373;28;19966;-70
2023/07/26 01:39:41;;;;;;;;;;;;;;;-140.72;100.00;52703.34;5081760;28;20346;-69
2023/07/26 01:42:07;;;;;;;;;;;;;;;-140.72;100.00;52723.66;5082282;28;19960;-69
2023/07/26 01:44:36;;;;;;;;;;;;;;;-140.72;100.00;52674.94;5083200;28;20025;-70
2023/07/26 01:47:01;;;;;;;;;;;;;;;-140.72;100.00;52674.94;5086787;28;19998;-70
2023/07/26 01:49:27;;;;;;;;;;;;;;;-140.72;100.00;52725.69;5083629;28;20322;-69
2023/07/26 01:51:52;;;;;;;;;;;;;;;-140.72;100.00;52707.41;5085424;28;19986;-69
2023/07/26 01:54:17;;;;;;;;;;;;;;;-140.72;100.00;52685.09;5085993;28;19933;-68
2023/07/26 01:56:42;;;;;;;;;;;;;;;-140.72;100.00;52754.09;5084440;28;19920;-69
2023/07/26 01:59:08;;;;;;;;;;;;;;;-140.72;100.00;52699.31;5080076;28;19928;-69
2023/07/26 02:01:33;;;;;;;;;;;;;;;-140.72;100.00;52711.47;5083422;28;19927;-69
2023/07/26 02:03:58;;;;;;;;;;;;;;;-140.72;100.00;52705.38;5085936;28;19973;-68
2023/07/26 02:06:23;;;;;;;;;;;;;;;-140.72;100.00;52719.59;5081650;28;19943;-69
2023/07/26 02:08:49;;;;;;;;;;;;;;;-140.72;100.00;52756.13;5085438;28;19927;-69
2023/07/26 02:11:14;;;;;;;;;;;;;;;-140.72;100.00;52699.31;5083368;28;19924;-69
2023/07/26 02:13:40;;;;;;;;;;;;;;;-140.72;100.00;52699.31;5092896;28;20383;-69
2023/07/26 02:16:05;;;;;;;;;;;;;;;-140.72;100.00;52666.84;5088018;28;19927;-69
2023/07/26 02:18:31;;;;;;;;;;;;;;;-140.72;100.00;52695.25;5090517;28;19920;-69
2023/07/26 02:20:57;;;;;;;;;;;;;;;-140.72;100.00;52695.25;5088790;28;19964;-69
2023/07/26 02:23:22;;;;;;;;;;;;;;;-140.72;100.00;52719.59;5085550;28;19921;-69
2023/07/26 02:25:47;;;;;;;;;;;;;;;-140.72;100.00;52687.13;5091247;28;19924;-69
2023/07/26 02:28:12;;;;;;;;;;;;;;;-140.72;100.00;52691.19;5086928;28;20431;-69
2023/07/26 02:30:38;;;;;;;;;;;;;;;-140.72;100.00;52691.19;5093557;28;19919;-69
2023/07/26 02:33:05;;;;;;;;;;;;;;;-140.72;100.00;52703.34;5084877;28;20346;-69
2023/07/26 02:35:30;;;;;;;;;;;;;;;-140.72;100.00;52699.31;5093213;28;20305;-69
2023/07/26 02:37:55;;;;;;;;;;;;;;;-140.72;100.00;52679.00;5085329;28;19939;-69
2023/07/26 02:40:21;;;;;;;;;;;;;;;-140.72;100.00;52664.81;5072981;28;19936;-71
2023/07/26 02:42:47;;;;;;;;;;;;;;;-140.72;100.00;52674.94;5094200;28;19958;-70
2023/07/26 02:45:12;;;;;;;;;;;;;;;-140.72;100.00;52721.63;5093865;28;20030;-69
2023/07/26 02:47:38;;;;;;;;;;;;;;;-140.72;100.00;52719.59;5079877;28;19963;-69
2023/07/26 02:50:04;;;;;;;;;;;;;;;-140.72;100.00;52715.53;5084196;28;19970;-69
2023/07/26 02:52:30;;;;;;;;;;;;;;;-140.72;100.00;52731.75;5089572;28;20533;-69
2023/07/26 02:54:55;;;;;;;;;;;;;;;-140.72;100.00;52687.13;5092691;28;19920;-69
2023/07/26 02:57:20;;;;;;;;;;;;;;;-140.72;100.00;52707.41;5087335;28;19931;-69
2023/07/26 02:59:45;;;;;;;;;;;;;;;-140.72;100.00;52721.63;5068130;28;19924;-69
2023/07/26 03:02:10;;;;;;;;;;;;;;;-140.72;100.00;52752.06;5097075;28;20287;-69
2023/07/26 03:04:36;;;;;;;;;;;;;;;-140.72;100.00;52715.53;5086620;28;19968;-69
2023/07/26 03:07:01;;;;;;;;;;;;;;;-140.72;100.00;52707.41;5089309;28;19952;-69
2023/07/26 03:09:26;;;;;;;;;;;;;;;-140.72;100.00;52752.06;5089532;28;19920;-69
2023/07/26 03:11:51;;;;;;;;;;;;;;;-140.72;100.00;52721.63;5094448;28;20011;-69
2023/07/26 03:14:17;;;;;;;;;;;;;;;-140.72;100.00;52719.59;5095330;28;20018;-69
2023/07/26 03:16:42;;;;;;;;;;;;;;;-140.72;100.00;52748.00;5078723;28;20016;-69
2023/07/26 03:19:07;;;;;;;;;;;;;;;-140.72;100.00;52731.75;5090464;28;19928;-69
2023/07/26 03:21:35;;;;;;;;;;;;;;;-140.72;100.00;52666.84;5087538;28;19927;-69
2023/07/26 03:24:01;;;;;;;;;;;;;;;-140.72;100.00;52685.09;5082076;28;19934;-70
2023/07/26 03:26:32;;;;;;;;;;;;;;;-140.72;100.00;52699.31;5083193;28;19921;-69
2023/07/26 03:28:58;;;;;;;;;;;;;;;-140.72;100.00;52658.72;5086464;28;20270;-70
2023/07/26 03:31:23;;;;;;;;;;;;;;;-140.72;100.00;52703.34;5099521;28;19920;-69
2023/07/26 03:33:48;;;;;;;;;;;;;;;-140.72;100.00;52719.59;5087853;28;19973;-69
2023/07/26 03:36:13;;;;;;;;;;;;;;;-140.72;100.00;52687.13;5086003;28;19967;-69
2023/07/26 03:38:39;;;;;;;;;;;;;;;-140.72;100.00;52674.94;5085303;28;20306;-69
2023/07/26 03:41:04;;;;;;;;;;;;;;;-140.72;100.00;52658.72;5089574;28;19920;-69
2023/07/26 03:43:29;;;;;;;;;;;;;;;-140.72;100.00;52737.84;5088149;28;20205;-70
2023/07/26 03:45:54;;;;;;;;;;;;;;;-140.72;100.00;52670.88;5085349;28;19963;-69
2023/07/26 03:48:19;;;;;;;;;;;;;;;-140.72;100.00;52683.06;5088866;28;19931;-70
2023/07/26 03:50:45;;;;;;;;;;;;;;;-140.72;100.00;52691.19;5086302;28;20010;-70
2023/07/26 03:53:10;;;;;;;;;;;;;;;-140.72;100.00;52676.97;5072115;28;20384;-70
2023/07/26 03:55:35;;;;;;;;;;;;;;;-140.72;100.00;52699.31;5085626;28;19920;-70
2023/07/26 03:58:00;;;;;;;;;;;;;;;-140.72;100.00;52717.56;5078459;28;19932;-70
2023/07/26 04:00:26;;;;;;;;;;;;;;;-140.72;100.00;52699.31;5086972;28;20231;-70
2023/07/26 04:02:51;;;;;;;;;;;;;;;-140.72;100.00;52691.19;5086078;28;20353;-69
2023/07/26 04:05:18;;;;;;;;;;;;;;;-140.72;100.00;52687.13;5091430;28;19920;-69
2023/07/26 04:07:43;;;;;;;;;;;;;;;-140.72;100.00;52699.31;5094439;28;20014;-69
2023/07/26 04:10:09;;;;;;;;;;;;;;;-140.72;100.00;52713.50;5087839;28;19974;-71
2023/07/26 04:12:34;;;;;;;;;;;;;;;-140.72;100.00;52668.84;5089354;28;20849;-70
2023/07/26 04:15:02;;;;;;;;;;;;;;;-140.72;100.00;52699.31;5087295;28;19937;-72
2023/07/26 04:17:27;;;;;;;;;;;;;;;-140.72;100.00;52683.06;5092984;28;19963;-73
2023/07/26 04:19:52;;;;;;;;;;;;;;;-140.72;100.00;52660.75;5082493;28;19921;-74
2023/07/26 04:22:30;;;;;;;;;;;;;;;-140.72;100.00;52717.56;5088828;28;19959;-74
2023/07/26 04:24:55;;;;;;;;;;;;;;;-140.72;100.00;52729.75;5087668;28;19920;-73
2023/07/26 04:27:20;;;;;;;;;;;;;;;-140.72;100.00;52676.97;5093846;28;19920;-73
2023/07/26 04:29:46;;;;;;;;;;;;;;;-140.72;100.00;52656.69;5093788;28;19923;-73
2023/07/26 04:32:11;;;;;;;;;;;;;;;-140.72;100.00;52670.88;5069431;28;20467;-73
2023/07/26 04:34:36;;;;;;;;;;;;;;;-140.72;100.00;52674.94;5086997;28;20342;-77
2023/07/26 04:37:02;;;;;;;;;;;;;;;-140.72;100.00;52674.94;5094987;28;20400;-72
2023/07/26 04:39:27;;;;;;;;;;;;;;;-140.72;100.00;52685.09;5071749;28;20403;-72
2023/07/26 04:41:53;;;;;;;;;;;;;;;-140.72;100.00;52638.41;5089790;28;20323;-71
2023/07/26 04:44:18;;;;;;;;;;;;;;;-140.72;100.00;52644.50;5088895;28;19920;-71
2023/07/26 04:46:48;;;;;;;;;;;;;;;-140.72;100.00;52681.03;5083706;28;19973;-71
2023/07/26 04:49:13;;;;;;;;;;;;;;;-140.72;100.00;52670.88;5090473;28;19960;-70
2023/07/26 04:51:38;;;;;;;;;;;;;;;-140.72;100.00;52676.97;5073052;28;19959;-72
2023/07/26 04:54:11;;;;;;;;;;;;;;;-140.72;100.00;52658.72;5094966;28;19920;-71
2023/07/26 04:56:37;;;;;;;;;;;;;;;-140.72;100.00;52636.38;5088573;28;19942;-70
2023/07/26 04:59:02;;;;;;;;;;;;;;;-140.72;100.00;52644.50;5100544;28;19926;-70
2023/07/26 05:01:27;;;;;;;;;;;;;;;-140.72;100.00;52642.47;5065707;28;19920;-71
2023/07/26 05:04:01;;;;;;;;;;;;;;;-140.72;100.00;52648.56;5095758;28;19923;-73
2023/07/26 05:06:26;;;;;;;;;;;;;;;-140.72;100.00;52670.88;5084537;28;20240;-72
2023/07/26 05:08:51;;;;;;;;;;;;;;;-140.72;100.00;52670.88;5090849;28;19949;-74
2023/07/26 05:11:20;;;;;;;;;;;;;;;-140.72;100.00;52658.72;5070299;28;20010;-70
2023/07/26 05:13:45;;;;;;;;;;;;;;;-140.72;100.00;52644.50;5093590;28;20020;-71
2023/07/26 05:16:10;;;;;;;;;;;;;;;-140.72;100.00;52622.19;5089213;28;20334;-69
2023/07/26 05:18:35;;;;;;;;;;;;;;;-140.72;100.00;52642.47;5090221;28;20393;-70
2023/07/26 05:21:00;;;;;;;;;;;;;;;-140.72;100.00;52676.97;5068294;28;20282;-74
2023/07/26 05:23:26;;;;;;;;;;;;;;;-140.72;100.00;52626.25;5094814;28;20377;-73
2023/07/26 05:25:51;;;;;;;;;;;;;;;-140.72;100.00;52658.72;5085867;28;20370;-73
2023/07/26 05:28:16;;;;;;;;;;;;;;;-140.72;100.00;52658.72;5089998;28;20425;-73
2023/07/26 05:30:42;;;;;;;;;;;;;;;-140.72;100.00;52634.38;5087290;28;19964;-74
2023/07/26 05:33:09;;;;;;;;;;;;;;;-140.72;100.00;52668.84;5084855;28;19920;-74
2023/07/26 05:35:34;;;;;;;;;;;;;;;-140.72;100.00;52679.00;5088821;28;19970;-76
2023/07/26 05:38:14;;;;;;;;;;;;;;;-140.72;100.00;52660.75;5090653;28;19931;-75
2023/07/26 05:40:40;;;;;;;;;;;;;;;-140.72;100.00;52642.47;5089368;28;19927;-70
2023/07/26 05:43:05;;;;;;;;;;;;;;;-140.72;100.00;52689.16;5088220;28;19920;-71
2023/07/26 05:45:31;;;;;;;;;;;;;;;-140.72;100.00;52676.97;5090536;28;19928;-70
2023/07/26 05:47:56;;;;;;;;;;;;;;;-140.72;100.00;52646.53;5089353;28;19920;-70
2023/07/26 05:50:22;;;;;;;;;;;;;;;-140.72;100.00;52626.25;5092791;28;19920;-71
2023/07/26 05:52:48;;;;;;;;;;;;;;;-140.72;100.00;52664.81;5091732;28;19924;-70
2023/07/26 05:55:13;;;;;;;;;;;;;;;-140.72;100.00;52683.06;5070369;28;19926;-70
2023/07/26 05:57:38;;;;;;;;;;;;;;;-140.72;100.00;52672.91;5095373;28;19920;-70
2023/07/26 06:00:04;;;;;;;;;;;;;;;-140.72;100.00;52626.25;5091565;28;20047;-70
2023/07/26 06:02:29;;;;;;;;;;;;;;;-140.72;100.00;52646.53;5093688;28;19972;-70
2023/07/26 06:04:54;;;;;;;;;;;;;;;-140.72;100.00;52634.38;5092907;28;19978;-70
2023/07/26 06:07:20;;;;;;;;;;;;;;;-140.72;100.00;52642.47;5093510;28;19988;-70
2023/07/26 06:09:45;;;;;;;;;;;;;;;-140.72;100.00;52660.75;5092629;28;19955;-70
2023/07/26 06:12:10;;;;;;;;;;;;;;;-140.72;100.00;52664.81;5076519;28;19931;-70
2023/07/26 06:14:40;;;;;;;;;;;;;;;-140.72;100.00;52681.03;5085221;28;19932;-71
2023/07/26 06:17:05;;;;;;;;;;;;;;;-140.72;100.00;52676.97;5098889;28;20360;-77
2023/07/26 06:19:33;;;;;;;;;;;;;;;-140.72;100.00;52644.50;5085983;28;19920;-79
2023/07/26 06:24:50;;;;;;;;;;;;;;;-140.72;100.00;52666.84;5090013;28;19923;-77
2023/07/26 06:27:20;;;;;;;;;;;;;;;-140.72;100.00;52666.84;5091058;28;20302;-76
2023/07/26 06:29:45;;;;;;;;;;;;;;;-140.72;100.00;52605.94;5106465;28;20292;-79
2023/07/26 06:32:17;;;;;;;;;;;;;;;-140.72;100.00;52628.28;5097058;28;20018;-77
2023/07/26 06:34:42;;;;;;;;;;;;;;;-140.72;100.00;52670.88;5076027;28;19921;-76
2023/07/26 06:37:07;;;;;;;;;;;;;;;-140.72;100.00;52658.72;5070211;28;19924;-76
2023/07/26 06:39:32;;;;;;;;;;;;;;;-140.72;100.00;52672.91;5068410;28;20849;-78
2023/07/26 06:41:58;;;;;;;;;;;;;;;-140.72;100.00;52605.94;5089065;28;19967;-78
2023/07/26 06:44:23;;;;;;;;;;;;;;;-140.72;100.00;52628.28;5089173;28;19924;-78
2023/07/26 06:46:48;;;;;;;;;;;;;;;-140.72;100.00;52593.78;5097750;28;19919;-78
2023/07/26 06:49:13;;;;;;;;;;;;;;;-140.72;100.00;52626.25;5099301;28;19990;-76
2023/07/26 06:51:39;;;;;;;;;;;;;;;-140.72;100.00;52577.53;5075717;28;20396;-77
2023/07/26 06:54:04;;;;;;;;;;;;;;;-140.72;100.00;52569.44;5080304;28;19939;-77
2023/07/26 06:56:29;;;;;;;;;;;;;;;-140.72;100.00;52530.88;5071774;28;20408;-77
2023/07/26 06:58:54;;;;;;;;;;;;;;;-140.72;100.00;52549.13;5072771;28;19921;-76
2023/07/26 07:01:20;;;;;;;;;;;;;;;-140.72;100.00;52591.75;5098412;27;19931;-77
2023/07/26 07:03:45;;;;;;;;;;;;;;;-140.72;100.00;52569.44;5071086;28;19932;-78
2023/07/26 07:06:11;;;;;;;;;;;;;;;-140.72;100.00;52569.44;5101191;28;20437;-77
2023/07/26 07:08:39;;;;;;;;;;;;;;;-140.72;100.00;52555.22;5091184;28;19920;-80
2023/07/26 07:11:05;;;;;;;;;;;;;;;-140.72;100.00;52597.84;5081065;28;19927;-80
2023/07/26 07:13:32;;;;;;;;;;;;;;;-140.72;100.00;52614.06;5072499;28;19928;-78
2023/07/26 07:15:58;;;;;;;;;;;;;;;-140.72;100.00;52569.44;5071596;28;19917;-78
2023/07/26 07:18:23;;;;;;;;;;;;;;;-140.72;100.00;52603.94;5075221;28;20011;-76
2023/07/26 07:20:54;;;;;;;;;;;;;;;-140.72;100.00;52607.97;5094900;28;19920;-78
2023/07/26 07:23:19;;;;;;;;;;;;;;;-140.72;100.00;52626.25;5079646;28;20081;-79
2023/07/26 07:25:44;;;;;;;;;;;;;;;-140.72;100.00;52595.81;5075589;28;19967;-80
2023/07/26 07:28:10;;;;;;;;;;;;;;;-140.72;100.00;52585.66;5082135;28;19924;-76
2023/07/26 07:30:35;;;;;;;;;;;;;;;-140.72;100.00;52593.78;5088514;28;19952;-80
2023/07/26 07:33:00;;;;;;;;;;;;;;;-140.72;100.00;52585.66;5079993;28;19924;-76
2023/07/26 07:35:27;;;;;;;;;;;;;;;-140.72;100.00;52577.53;5087677;28;20304;-74
2023/07/26 07:37:52;;;;;;;;;;;;;;;-140.72;100.00;52528.84;5083506;28;19923;-74
2023/07/26 07:40:17;;;;;;;;;;;;;;;-140.72;100.00;52555.22;5089054;28;19928;-74
2023/07/26 07:42:43;;;;;;;;;;;;;;;-140.72;100.00;52524.78;5098040;28;20008;-78
2023/07/26 07:45:08;;;;;;;;;;;;;;;-140.72;100.00;52585.66;5085637;28;19920;-75
2023/07/26 07:47:33;;;;;;;;;;;;;;;-140.72;100.00;52591.75;5098512;28;19920;-75
2023/07/26 07:49:58;;;;;;;;;;;;;;;-140.72;100.00;52547.09;5100315;28;19920;-75
2023/07/26 07:52:24;;;;;;;;;;;;;;;-140.72;100.00;52520.72;5091015;28;19916;-74
2023/07/26 07:54:49;;;;;;;;;;;;;;;-140.72;100.00;52536.97;5092073;28;19920;-78
2023/07/26 07:57:16;;;;;;;;;;;;;;;-140.72;100.00;52541.03;5070513;28;19945;-76
2023/07/26 07:59:41;;;;;;;;;;;;;;;-140.72;100.00;52514.63;5077059;28;19923;-74
2023/07/26 08:02:06;;;;;;;;;;;;;;;-140.72;100.00;52500.44;5077688;28;19924;-80
2023/07/26 08:04:32;;;;;;;;;;;;;;;-140.72;100.00;52492.31;5078931;28;19916;-82
2023/07/26 08:06:59;;;;;;;;;;;;;;;-140.72;100.00;52502.47;5076498;28;20333;-81
2023/07/26 08:09:24;;;;;;;;;;;;;;;-140.72;100.00;52496.38;5078345;28;19920;-77
2023/07/26 08:11:50;;;;;;;;;;;;;;;-140.72;100.00;52482.16;5083297;28;19999;-81
2023/07/26 08:14:15;;;;;;;;;;;;;;;-140.72;100.00;52504.50;5082282;28;19943;-81
2023/07/26 08:16:40;;;;;;;;;;;;;;;-140.72;100.00;52476.09;5083788;28;19930;-78
2023/07/26 08:19:05;;;;;;;;;;;;;;;-140.72;100.00;52453.75;5095911;28;20107;-85
2023/07/26 08:21:31;;;;;;;;;;;;;;;-140.72;100.00;52465.94;5089488;28;19927;-79
2023/07/26 08:23:56;;;;;;;;;;;;;;;-140.72;100.00;52480.16;5085594;28;19928;-79
2023/07/26 08:26:21;;;;;;;;;;;;;;;-140.72;94.92;52453.75;5082502;28;19924;-81
2023/07/26 08:28:48;;;;;;;;;;;;;;;-140.72;100.00;52472.03;5077310;28;20416;-83
2023/07/26 08:31:13;;;;;;;;;;;;;;;-140.72;77.11;52423.31;5068949;28;19920;-78
2023/07/26 08:33:38;;;;;;;;;;;;;;;-140.72;40.88;52470.00;5063888;28;19924;-80
2023/07/26 08:36:04;;;;;;;;;;;;;;;-140.72;21.17;52496.38;5077703;28;19920;-80
2023/07/26 08:38:40;;;;;;;;;;;;;;;-140.72;21.38;52463.91;5104093;28;20022;-79
2023/07/26 08:41:08;;;;;;;;;;;;;;;-140.72;0.00;52470.00;5076596;28;20434;-79
2023/07/26 08:43:35;;;;;;;;;;;;;;;-140.72;0.00;52459.84;5104156;28;19966;-77
2023/07/26 08:46:02;;;;;;;;;;;;;;;-140.72;0.00;52447.69;5092407;28;20019;-80
2023/07/26 08:48:27;;;;;;;;;;;;;;;-140.72;0.00;52433.47;5090709;28;20253;-78
2023/07/26 08:50:52;;;;;;;;;;;;;;;-140.72;0.00;52403.03;5085950;28;20015;-77
2023/07/26 08:53:21;;;;;;;;;;;;;;;-140.72;0.00;52396.94;5080791;28;19924;-78
2023/07/26 08:56:05;;;;;;;;;;;;;;;-140.72;0.00;52396.94;5082828;28;19916;-77
2023/07/26 08:58:30;;;;;;;;;;;;;;;-140.72;0.00;52427.38;5085889;28;19966;-77
2023/07/26 09:00:57;;;;;;;;;;;;;;;-140.72;0.00;52437.53;5091195;28;19920;-77
2023/07/26 09:03:26;;;;;;;;;;;;;;;-140.72;0.00;52386.81;5084877;28;19920;-78
2023/07/26 09:06:08;;;;;;;;;;;;;;;-140.72;0.00;52384.78;5079130;28;20274;-77
2023/07/26 09:08:33;;;;;;;;;;;;;;;-140.72;0.00;52374.63;5092120;28;19980;-77
2023/07/26 09:11:01;;;;;;;;;;;;;;;-140.72;0.00;52366.50;5096808;28;19982;-77
2023/07/26 09:13:33;;;;;;;;;;;;;;;-140.72;0.00;52334.03;5074115;28;19924;-77
2023/07/26 09:16:00;;;;;;;;;;;;;;;-140.72;0.00;52370.56;5068999;28;19920;-77
2023/07/26 09:18:25;;;;;;;;;;;;;;;-140.72;0.00;52334.03;5073346;28;19946;-77
2023/07/26 09:21:00;;;;;;;;;;;;;;;-140.72;0.00;52313.75;5096488;28;19920;-81
2023/07/26 09:23:30;;;;;;;;;;;;;;;-140.72;0.00;52297.53;5087768;28;19989;-81
2023/07/26 09:25:55;;;;;;;;;;;;;;;-140.72;0.00;52346.22;5071287;28;19999;-78
2023/07/26 09:28:21;;;;;;;;;;;;;;;-140.72;0.00;52350.28;5078295;28;19923;-77
2023/07/26 09:30:52;;;;;;;;;;;;;;;-140.72;0.00;52307.66;5095906;28;19947;-78
2023/07/26 09:33:17;;;;;;;;;;;;;;;-140.72;0.00;52431.44;5107478;28;19940;-77
2023/07/26 09:35:44;;;;;;;;;;;;;;;-140.72;0.00;52433.47;5093509;28;19935;-76
2023/07/26 09:38:26;;;;;;;;;;;;;;;-140.72;0.00;52370.56;5070034;28;19943;-74
2023/07/26 09:40:51;;;;;;;;;;;;;;;-140.72;0.00;52321.88;5087394;28;19927;-74
2023/07/26 09:43:32;;;;;;;;;;;;;;;-140.72;0.00;52362.44;5092737;28;20006;-77
2023/07/26 09:46:04;;;;;;;;;;;;;;;-140.72;0.00;52342.16;5108645;28;20328;-77
2023/07/26 09:48:29;;;;;;;;;;;;;;;-140.72;0.00;52330.00;5076080;28;20014;-81
2023/07/26 09:50:55;;;;;;;;;;;;;;;-140.72;0.00;52265.06;5097587;28;20455;-79
2023/07/26 09:53:22;;;;;;;;;;;;;;;-140.72;0.00;52267.09;5088440;28;20059;-78
2023/07/26 09:55:48;;;;;;;;;;;;;;;-140.72;0.00;52279.25;5088111;28;19928;-78
2023/07/26 09:58:16;;;;;;;;;;;;;;;-140.72;0.00;52248.81;5099561;28;19950;-78
2023/07/26 10:00:42;;;;;;;;;;;;;;;-140.72;0.00;52281.28;5069559;28;19920;-78
2023/07/26 10:03:10;;;;;;;;;;;;;;;-140.72;0.00;52246.78;5076632;28;20345;-79
2023/07/26 10:05:44;;;;;;;;;;;;;;;-140.72;0.00;52226.50;5082072;28;19920;-77
2023/07/26 10:08:10;;;;;;;;;;;;;;;-140.72;0.00;52220.41;5075397;28;19931;-79
2023/07/26 10:10:35;;;;;;;;;;;;;;;-140.72;0.00;52179.84;5090013;28;19920;-78
2023/07/26 10:13:02;;;;;;;;;;;;;;;-140.72;0.00;52196.06;5083877;28;19924;-79
2023/07/26 10:15:30;;;;;;;;;;;;;;;-140.72;0.00;52228.53;5095793;28;19920;-77
2023/07/26 10:17:55;;;;;;;;;;;;;;;-140.72;0.00;52204.19;5081063;28;19924;-78
2023/07/26 10:20:21;;;;;;;;;;;;;;;-140.72;0.00;52192.00;5092176;28;20403;-78
2023/07/26 10:22:47;;;;;;;;;;;;;;;-140.72;0.00;52228.53;5088775;28;20032;-81
2023/07/26 10:25:12;;;;;;;;;;;;;;;-140.72;0.00;52281.28;5079594;28;20011;-78
2023/07/26 10:27:38;;;;;;;;;;;;;;;-140.72;0.00;52246.78;5088764;28;19955;-77
2023/07/26 10:30:04;;;;;;;;;;;;;;;-140.72;0.00;52258.97;5095301;28;19924;-77
2023/07/26 10:32:30;;;;;;;;;;;;;;;-140.72;0.00;52179.84;5090378;28;20412;-74
2023/07/26 10:34:56;;;;;;;;;;;;;;;-140.72;0.00;52256.94;5090562;28;19916;-75
2023/07/26 10:37:21;;;;;;;;;;;;;;;-140.72;0.00;52285.34;5094921;28;20440;-75
2023/07/26 10:39:48;;;;;;;;;;;;;;;-140.72;0.00;52368.53;5092996;28;19959;-74
2023/07/26 10:42:27;;;;;;;;;;;;;;;-140.72;0.00;52279.25;5096518;28;19931;-75
2023/07/26 10:44:57;;;;;;;;;;;;;;;-140.72;0.00;52196.06;5092658;28;19966;-75
2023/07/26 10:47:22;;;;;;;;;;;;;;;-140.72;0.00;52137.22;5090061;28;19926;-74
2023/07/26 10:50:09;;;;;;;;;;;;;;;-140.72;0.00;52196.06;5065640;28;19956;-74
2023/07/26 10:52:38;;;;;;;;;;;;;;;-140.72;0.00;52297.53;5077240;28;19917;-77
2023/07/26 10:58:11;;;;;;;;;;;;;;;-140.72;0.00;52100.72;5094077;28;20331;-76
2023/07/26 11:00:37;;;;;;;;;;;;;;;-140.72;0.00;52074.34;5098191;28;19936;-76
2023/07/26 11:03:24;;;;;;;;;;;;;;;-140.72;0.00;52157.53;5095142;28;19916;-77
2023/07/26 11:05:53;;;;;;;;;;;;;;;-140.72;0.00;52232.59;5079182;28;20007;-76
2023/07/26 11:08:19;;;;;;;;;;;;;;;-140.72;0.00;52311.72;5060902;28;19921;-78
2023/07/26 11:10:51;;;;;;;;;;;;;;;-140.72;0.00;52192.00;5092805;28;19960;-76
2023/07/26 11:13:20;;;;;;;;;;;;;;;-140.72;0.00;52171.72;5091412;28;19924;-74
2023/07/26 11:15:50;;;;;;;;;;;;;;;-140.72;0.00;52127.09;5083168;28;19952;-75
2023/07/26 11:18:24;;;;;;;;;;;;;;;-140.72;0.00;52165.63;5094508;28;20340;-75
2023/07/26 11:20:50;;;;;;;;;;;;;;;-140.72;0.00;52074.34;5075080;28;20356;-76
2023/07/26 11:23:19;;;;;;;;;;;;;;;-140.72;0.00;52106.78;5100735;28;19989;-72
2023/07/26 11:25:45;;;;;;;;;;;;;;;-140.72;0.00;52088.53;5088611;28;19924;-73
2023/07/26 11:28:17;;;;;;;;;;;;;;;-140.72;0.00;52041.88;5083870;28;19923;-72
2023/07/26 11:30:47;;;;;;;;;;;;;;;-140.72;0.00;52078.38;5099159;28;19928;-77
2023/07/26 11:33:12;;;;;;;;;;;;;;;-140.72;0.00;52149.41;5090110;28;19920;-76
2023/07/26 11:35:38;;;;;;;;;;;;;;;-140.72;0.00;52066.22;5092288;28;20002;-78
2023/07/26 11:41:07;;;;;;;;;;;;;;;-140.72;0.00;52281.28;5091011;28;19947;-77
2023/07/26 11:43:38;;;;;;;;;;;;;;;-140.72;0.00;52354.34;5093844;28;20040;-76
2023/07/26 11:46:03;;;;;;;;;;;;;;;-140.72;0.00;52354.34;5067161;28;19982;-74
2023/07/26 11:48:32;;;;;;;;;;;;;;;-140.72;0.00;52196.06;5094317;28;19925;-75
2023/07/26 11:50:59;;;;;;;;;;;;;;;-140.72;0.00;52100.72;5085242;28;20315;-75
2023/07/26 11:53:29;;;;;;;;;;;;;;;-140.72;0.00;52023.59;5089964;28;19920;-75
2023/07/26 11:55:54;;;;;;;;;;;;;;;-140.72;0.00;52098.69;5082621;28;19932;-76
2023/07/26 11:58:21;;;;;;;;;;;;;;;-140.72;0.00;52019.56;5080105;28;19928;-76
2023/07/26 12:00:48;;;;;;;;;;;;;;;-140.72;0.00;51997.22;5083408;28;20018;-75
2023/07/26 12:03:14;;;;;;;;;;;;;;;-140.72;0.00;51989.13;5071747;28;20275;-75
2023/07/26 12:05:42;;;;;;;;;;;;;;;-140.72;0.00;51981.00;5067759;28;20059;-76
2023/07/26 12:08:08;;;;;;;;;;;;;;;-140.72;0.00;51948.53;5072098;28;19927;-75
2023/07/26 12:10:38;;;;;;;;;;;;;;;-140.72;0.00;52025.63;5077681;28;19951;-76
2023/07/26 12:13:07;;;;;;;;;;;;;;;-140.72;0.00;52110.84;5093027;28;19928;-75
2023/07/26 12:15:47;;;;;;;;;;;;;;;-140.72;0.00;52072.31;5072059;28;20415;-75
2023/07/26 12:18:12;;;;;;;;;;;;;;;-140.72;0.00;52015.50;5064809;28;20250;-76
2023/07/26 12:20:53;;;;;;;;;;;;;;;-140.72;0.00;51997.22;5097926;28;20077;-76
2023/07/26 12:23:18;;;;;;;;;;;;;;;-140.72;0.00;52137.22;5086403;28;19931;-76
2023/07/26 12:26:04;;;;;;;;;;;;;;;-140.72;0.00;52041.88;5074787;28;20326;-76
2023/07/26 12:28:37;;;;;;;;;;;;;;;-140.72;0.00;52123.03;5066495;28;20303;-75
2023/07/26 12:31:02;;;;;;;;;;;;;;;-140.72;0.00;52035.78;5072732;28;19945;-75